createdAt,value
2022-12-14T00:03:01.348Z,-5.65
2022-12-14T00:08:09.530Z,-5.65
2022-12-14T00:13:19.068Z,-5.58
2022-12-14T00:18:24.416Z,-5.49
2022-12-14T00:23:37.094Z,-5.46
2022-12-14T00:28:44.729Z,-5.36
2022-12-14T00:33:50.504Z,-5.43
2022-12-14T00:38:58.189Z,-5.37
2022-12-14T00:44:03.180Z,-5.39
2022-12-14T00:49:08.214Z,-5.36
2022-12-14T00:54:15.965Z,-5.19
2022-12-14T00:59:27.009Z,-5.01
2022-12-14T01:04:34.507Z,-5.04
2022-12-14T01:09:42.123Z,-5.05
2022-12-14T01:14:47.390Z,-5.00
2022-12-14T01:19:52.251Z,-5.07
2022-12-14T01:24:59.885Z,-5.11
2022-12-14T01:30:04.978Z,-5.11
2022-12-14T01:35:10.635Z,-5.12
2022-12-14T01:40:19.377Z,-5.13
2022-12-14T01:45:25.457Z,-5.13
2022-12-14T01:50:36.211Z,-5.13
2022-12-14T01:55:49.711Z,-5.21
2022-12-14T02:00:57.875Z,-5.18
2022-12-14T02:06:06.756Z,-5.19
2022-12-14T02:11:14.749Z,-4.99
2022-12-14T02:16:19.829Z,-5.14
2022-12-14T02:21:27.958Z,-5.18
2022-12-14T02:26:53.234Z,-5.19
2022-12-14T02:32:13.828Z,-5.20
2022-12-14T02:37:28.439Z,-5.18
2022-12-14T02:42:44.902Z,-5.23
2022-12-14T02:47:56.594Z,-5.23
2022-12-14T02:53:09.406Z,-5.21
2022-12-14T02:58:20.458Z,-5.23
2022-12-14T03:03:29.491Z,-5.32
2022-12-14T03:08:38.321Z,-5.43
2022-12-14T03:13:49.344Z,-5.32
2022-12-14T03:19:02.844Z,-5.53
2022-12-14T03:24:12.959Z,-5.60
2022-12-14T03:29:24.529Z,-5.62
2022-12-14T03:34:36.929Z,-5.51
2022-12-14T03:39:46.409Z,-5.46
2022-12-14T03:45:02.286Z,-5.43
2022-12-14T03:50:14.584Z,-5.47
2022-12-14T03:55:29.215Z,-5.56
2022-12-14T04:00:39.550Z,-5.40
2022-12-14T04:05:49.780Z,-5.47
2022-12-14T04:11:10.955Z,-5.38
2022-12-14T04:16:33.069Z,-5.15
2022-12-14T04:21:48.001Z,-5.09
2022-12-14T04:26:58.029Z,-5.21
2022-12-14T04:32:11.923Z,-5.16
2022-12-14T04:37:26.684Z,-5.24
2022-12-14T04:42:36.456Z,-5.35
2022-12-14T04:47:47.207Z,-5.38
2022-12-14T04:53:01.239Z,-5.37
2022-12-14T04:58:14.597Z,-5.30
2022-12-14T05:03:27.105Z,-5.35
2022-12-14T05:09:01.727Z,-5.33
2022-12-14T05:14:11.707Z,-5.28
2022-12-14T05:19:20.676Z,-5.32
2022-12-14T05:24:29.699Z,-5.33
2022-12-14T05:29:34.703Z,-5.28
2022-12-14T05:34:39.712Z,-5.24
2022-12-14T05:39:47.554Z,-5.26
2022-12-14T05:44:52.779Z,-5.23
2022-12-14T05:49:57.692Z,-5.21
2022-12-14T05:55:05.303Z,-5.19
2022-12-14T06:00:12.336Z,-5.07
2022-12-14T06:05:17.450Z,-5.16
2022-12-14T06:10:27.885Z,-5.02
2022-12-14T06:15:34.371Z,-5.03
2022-12-14T06:20:39.528Z,-5.01
2022-12-14T06:25:48.308Z,-4.99
2022-12-14T06:30:54.724Z,-4.92
2022-12-14T06:35:59.629Z,-4.91
2022-12-14T06:41:11.981Z,-4.93
2022-12-14T06:46:19.400Z,-4.86
2022-12-14T06:51:29.214Z,-4.89
2022-12-14T06:56:40.834Z,-4.88
2022-12-14T07:01:50.154Z,-4.88
2022-12-14T07:06:55.601Z,-4.84
2022-12-14T07:12:03.290Z,-4.81
2022-12-14T07:17:09.587Z,-4.78
2022-12-14T07:22:15.045Z,-4.59
2022-12-14T07:27:24.154Z,-4.60
2022-12-14T07:32:31.478Z,-4.63
2022-12-14T07:37:38.027Z,-4.62
2022-12-14T07:42:47.984Z,-4.59
2022-12-14T07:47:52.999Z,-4.56
2022-12-14T07:52:58.019Z,-4.48
2022-12-14T07:58:05.514Z,-4.42
2022-12-14T08:03:10.566Z,-4.37
2022-12-14T08:08:15.499Z,-4.36
2022-12-14T08:13:23.016Z,-4.24
2022-12-14T08:18:28.086Z,-4.18
2022-12-14T08:23:33.830Z,-4.12
2022-12-14T08:28:42.007Z,-3.96
2022-12-14T08:33:47.975Z,-3.92
2022-12-14T08:38:56.492Z,-3.91
2022-12-14T08:44:05.686Z,-3.82
2022-12-14T08:49:11.088Z,-3.98
2022-12-14T08:54:17.529Z,-3.88
2022-12-14T08:59:59.771Z,-3.72
2022-12-14T09:04:50.591Z,-3.66
2022-12-14T09:10:00.811Z,-3.66
2022-12-14T09:15:12.044Z,-3.48
2022-12-14T09:20:18.127Z,-3.51
2022-12-14T09:25:27.156Z,-3.45
2022-12-14T09:30:35.743Z,-3.34
2022-12-14T09:35:41.159Z,-3.33
2022-12-14T09:41:00.444Z,-3.24
2022-12-14T09:46:19.301Z,-3.19
2022-12-14T09:51:26.022Z,-3.15
2022-12-14T09:56:30.949Z,-3.23
2022-12-14T10:07:27.011Z,-3.32
2022-12-14T10:12:47.023Z,-3.33
2022-12-14T10:18:58.339Z,-3.25
2022-12-14T10:24:01.538Z,-3.27
2022-12-14T10:29:10.700Z,-3.23
2022-12-14T10:34:25.433Z,-3.07
2022-12-14T10:39:43.461Z,-2.95
2022-12-14T10:50:55.795Z,-2.46
2022-12-14T10:56:08.973Z,-2.51
2022-12-14T11:01:17.659Z,-2.48
2022-12-14T11:06:25.516Z,-2.23
2022-12-14T11:11:31.017Z,-2.27
2022-12-14T11:16:38.770Z,-2.17
2022-12-14T11:21:50.384Z,-2.33
2022-12-14T11:26:58.060Z,-2.27
2022-12-14T11:32:04.313Z,-2.20
2022-12-14T11:37:26.585Z,-2.09
2022-12-14T11:42:36.252Z,-2.17
2022-12-14T11:47:41.307Z,-2.20
2022-12-14T11:52:49.130Z,-2.41
2022-12-14T11:58:00.311Z,-2.18
2022-12-14T12:03:10.792Z,-2.44
2022-12-14T12:08:27.939Z,-2.23
2022-12-14T12:13:35.616Z,-2.31
2022-12-14T12:18:46.934Z,-2.31
2022-12-14T12:24:00.378Z,-2.19
2022-12-14T12:29:14.033Z,-2.24
2022-12-14T12:34:24.902Z,-2.23
2022-12-14T12:39:35.289Z,-2.13
2022-12-14T12:44:49.972Z,-2.22
2022-12-14T12:49:55.508Z,-2.35
2022-12-14T12:55:06.134Z,-2.33
2022-12-14T13:00:19.010Z,-2.32
2022-12-14T13:11:28.401Z,-2.21
2022-12-14T13:16:28.260Z,-2.01
2022-12-14T13:21:36.109Z,-2.15
2022-12-14T13:27:15.487Z,-2.10
2022-12-14T13:32:38.958Z,-2.15
2022-12-14T13:37:55.000Z,-2.17
2022-12-14T13:43:14.351Z,-2.11
2022-12-14T13:48:25.325Z,-2.28
2022-12-14T13:53:33.790Z,-2.17
2022-12-14T13:58:45.375Z,-2.23
2022-12-14T14:03:56.669Z,-2.17
2022-12-14T14:09:23.034Z,-2.11
2022-12-14T14:14:55.427Z,-2.23
2022-12-14T14:20:03.289Z,-2.13
2022-12-14T14:25:27.348Z,-2.08
2022-12-14T14:30:38.946Z,-2.27
2022-12-14T14:35:43.987Z,-2.34
2022-12-14T14:41:16.005Z,-2.24
2022-12-14T14:46:37.509Z,-2.27
2022-12-14T14:51:48.522Z,-2.35
2022-12-14T14:56:54.593Z,-2.46
2022-12-14T15:02:04.145Z,-2.39
2022-12-14T15:07:11.808Z,-2.32
2022-12-14T15:12:27.899Z,-2.43
2022-12-14T15:17:35.957Z,-2.45
2022-12-14T15:22:44.835Z,-2.37
2022-12-14T15:27:51.282Z,-2.38
2022-12-14T15:33:02.299Z,-2.38
2022-12-14T15:38:09.558Z,-2.56
2022-12-14T15:43:20.507Z,-2.60
2022-12-14T15:48:31.406Z,-2.65
2022-12-14T15:53:39.437Z,-2.54
2022-12-14T15:58:49.735Z,-2.66
2022-12-14T16:04:01.785Z,-2.71
2022-12-14T16:09:10.815Z,-2.68
2022-12-14T16:14:25.033Z,-2.69
2022-12-14T16:19:58.024Z,-2.68
2022-12-14T16:25:20.598Z,-2.64
2022-12-14T16:30:34.102Z,-2.53
2022-12-14T16:35:41.951Z,-2.68
2022-12-14T16:40:57.486Z,-2.55
2022-12-14T16:46:14.814Z,-2.48
2022-12-14T16:52:07.011Z,-2.51
2022-12-14T16:57:05.439Z,-2.68
2022-12-14T17:02:30.441Z,-2.76
2022-12-14T17:07:40.970Z,-2.67
2022-12-14T17:12:48.040Z,-2.72
2022-12-14T17:17:56.515Z,-2.70
2022-12-14T17:23:05.231Z,-2.68
2022-12-14T17:28:23.295Z,-2.79
2022-12-14T17:33:30.415Z,-2.83
2022-12-14T17:38:38.613Z,-2.38
2022-12-14T17:43:49.943Z,-2.19
2022-12-14T17:48:58.373Z,-1.96
2022-12-14T17:54:09.113Z,-1.81
2022-12-14T17:59:16.094Z,-1.81
2022-12-14T18:04:21.058Z,-2.17
2022-12-14T18:09:30.652Z,-2.24
2022-12-14T18:14:35.633Z,-2.41
2022-12-14T18:19:40.893Z,-2.41
2022-12-14T18:24:52.219Z,-2.16
2022-12-14T18:30:01.040Z,-2.07
2022-12-14T18:35:09.732Z,-1.88
2022-12-14T18:40:20.558Z,-1.94
2022-12-14T18:45:28.030Z,-1.80
2022-12-14T18:50:35.342Z,-1.87
2022-12-14T18:55:50.734Z,-2.00
2022-12-14T19:00:58.595Z,-2.03
2022-12-14T19:06:43.156Z,-2.20
2022-12-14T19:11:44.746Z,-2.21
2022-12-14T19:17:00.564Z,-2.19
2022-12-14T19:22:06.193Z,-2.17
2022-12-14T19:27:30.275Z,-2.26
2022-12-14T19:32:43.372Z,-2.23
2022-12-14T19:37:55.806Z,-2.42
2022-12-14T19:43:12.865Z,-2.38
2022-12-14T19:48:20.218Z,-1.93
2022-12-14T19:53:27.600Z,-1.70
2022-12-14T19:58:42.194Z,-1.76
2022-12-14T20:03:50.998Z,-2.02
2022-12-14T20:09:06.544Z,-1.95
2022-12-14T20:14:18.864Z,-1.92
2022-12-14T20:19:28.451Z,-1.86
2022-12-14T20:24:35.444Z,-1.89
2022-12-14T20:29:45.541Z,-1.89
2022-12-14T20:34:52.898Z,-1.87
2022-12-14T20:39:59.238Z,-2.05
2022-12-14T20:45:11.843Z,-2.47
2022-12-14T20:50:20.959Z,-2.87
2022-12-14T20:55:26.651Z,-3.08
2022-12-14T21:00:34.883Z,-3.27
2022-12-14T21:05:44.903Z,-3.24
2022-12-14T21:10:50.415Z,-3.08
2022-12-14T21:16:05.696Z,-2.92
2022-12-14T21:21:11.627Z,-2.99
2022-12-14T21:26:17.216Z,-3.03
2022-12-14T21:31:25.633Z,-3.18
2022-12-14T21:36:31.898Z,-3.24
2022-12-14T21:41:49.292Z,-3.12
2022-12-14T21:46:56.992Z,-3.24
2022-12-14T21:52:05.804Z,-3.69
2022-12-14T21:57:28.554Z,-4.02
2022-12-14T22:02:38.734Z,-4.42
2022-12-14T22:07:43.964Z,-4.60
2022-12-14T22:12:48.912Z,-4.71
2022-12-14T22:17:56.519Z,-4.75
2022-12-14T22:23:01.430Z,-4.75
2022-12-14T22:28:06.580Z,-4.83
2022-12-14T22:33:14.273Z,-5.04
2022-12-14T22:38:19.228Z,-5.32
2022-12-14T22:43:28.838Z,-5.42
2022-12-14T22:48:40.005Z,-5.61
2022-12-14T22:53:49.741Z,-5.64
2022-12-14T22:59:00.532Z,-5.66
2022-12-14T23:04:09.305Z,-5.35
2022-12-14T23:09:26.838Z,-5.43
2022-12-14T23:14:44.238Z,-5.43
2022-12-14T23:20:05.058Z,-6.00
2022-12-14T23:25:23.211Z,-5.96
2022-12-14T23:30:40.531Z,-5.93
2022-12-14T23:36:00.456Z,-6.14
2022-12-14T23:41:18.321Z,-6.21
2022-12-14T23:46:35.709Z,-6.09
2022-12-14T23:51:55.610Z,-6.18
2022-12-14T23:57:13.872Z,-6.46
